Tropical Cyclones
[Index]
Main Index Home Page Stock Weather Photos Extreme Storms Discussion Storm News and Storm Chasing Reports Tropical Cyclones / Hurricanes / Typhoons Weather Data and Links Wild Fires / Bushfires Weather Observation Techniques Weather Picture Catalogue Tornado Pictures and Reports Stock Video Footage and DVDs for sale
Season 1981-1982 Tropical Cyclone ERROL Track Map
Season 1981-1982 Summaries: [BoM-AU] [JTWC-AU] [JTWC-SIO] [JTWC-SPAC] [JTWC-SH]
<<- Previous TC | BoM 1981-1982 Season | Next TC ->>

click for intensity scale information  Lat/long Grid: Show Hide

 Date Labels: Show Hide

Bureau of Meteorology Tropical Cyclone Data

Name: ERROL
Number: 627 / 198182_08

11 Jan 1982 00:00 UTC to 18 Jan 1982 15:00 UTC

    date/time    lat    long    hPa   cat  kts
1982-01-11 00   11.8   119.2   1003                     
1982-01-11 06   12.2   119.0   1003                     
1982-01-11 12   12.5   118.6   1003                     
1982-01-11 18   12.8   118.3   1003                     
1982-01-12 00   12.8   117.6   1002                     
1982-01-12 06   12.8   117.2   1000                     
1982-01-12 12   12.8   116.4    999                     
1982-01-12 18   12.7   115.6    996                     
1982-01-13 00   12.9   114.9    994    1                
1982-01-13 06   12.9   114.5    993    1                
1982-01-13 12   12.9   114.2    992    1                
1982-01-13 18   13.1   113.7    990    1                
1982-01-14 00   13.3   113.5    988    1                
1982-01-14 06   13.5   113.3    986    1                
1982-01-14 12   13.5   113.2    984    2                
1982-01-14 18   13.6   113.0    982    2                
1982-01-15 00   13.8   112.8    980    2                
1982-01-15 06   14.2   112.6    980    2                
1982-01-15 12   14.6   112.4    980    2                
1982-01-15 18   15.0   112.7    980    2                
1982-01-16 00   15.2   113.3    980    2                
1982-01-16 06   15.4   113.7    982    2                
1982-01-16 12   15.6   113.7    984    2                
1982-01-16 18   15.8   113.8    986    1                
1982-01-17 00   16.0   113.8    988    1                
1982-01-17 06   16.3   113.9    988    1                
1982-01-17 12   16.8   114.6    988    1                
1982-01-17 18   16.8   115.3    988    1                
1982-01-18 00   16.8   116.9    988    1                
1982-01-18 06   17.4   118.2    985    2                
1982-01-18 09   17.7   118.6    988    1                
1982-01-18 12   18.6   118.7    988    1                
1982-01-18 15   19.4   118.5    988    1                
Winds are 10-min average.

Tropical cyclone tracks developed by Michael Bath using data from the Bureau of Meteorology and Google Maps.


[Australian Severe Weather index] [Copyright Notice] [Email Contacts] [Search This Site] [Privacy Policy]
Document: tropical_cyclone_errol.htm Updated: 30 May 2013